• Join FlightAware (Why Join?)
  • Login
  • US Flag 
01:00AM EDT


 

Airport Tracker/Info


-or-


 

Live Flight TrackerFlight Track Log ✈ N415JA ✈ 25-Oct-2013 ✈ KCLT - KFXE

Flight Track Log - Related Links

Times and Time Zones

All times are in EDT time to prevent confusion due to time zone crossing. See the N415JA flight status page for this flight to view local times or setup timezone preferences in your user account.

Time Position Orientation Groundspeed Altitude Reporting Facility
EDT Latitude Longitude Course Direction KTS MPH feet Rate Location/Type
09:00AM 35.2200 -80.9397 20° North 157 181 1,400  Level Atlanta Center
09:01AM 35.2633 -80.9203 20° North 190 219 4,900 3,540 Climbing Atlanta Center
09:02AM 35.2444 -80.8344 105° East 318 366 8,600 3,720 Climbing Atlanta Center
09:02AM 35.1822 -80.8469 189° South 321 369 12,100 3,240 Climbing Atlanta Center
09:03AM 35.1183 -80.8697 196° South 322 371 13,900 1,320 Climbing Atlanta Center
09:04AM 35.0297 -80.9189 204° Southwest 342 394 14,500 1,380 Climbing Atlanta Center
09:05AM 34.9214 -80.9281 184° South 369 425 16,700 2,160 Climbing Atlanta Center
09:07AM 34.7492 -80.9092 175° South 381 438 20,200 2,280 Climbing Jacksonville Center
09:08AM 34.6425 -80.8964 174° South 395 455 22,700 1,440 Climbing Jacksonville Center
09:09AM 34.5278 -80.8889 177° South 395 455 23,100 1,020 Climbing Jacksonville Center
09:10AM 34.4197 -80.9117 190° South 395 455 24,800 1,680 Climbing Jacksonville Center
09:11AM 34.3117 -80.9392 192° South 400 460 26,500 1,740 Climbing Jacksonville Center
09:12AM 34.1967 -80.9242 174° South 405 466 28,300 1,740 Climbing Jacksonville Center
09:13AM 34.0772 -80.9019 171° South 415 478 30,000 1,440 Climbing Jacksonville Center
09:14AM 33.9603 -80.8819 172° South 429 494 31,200 1,140 Climbing Jacksonville Center
09:15AM 33.8389 -80.8622 172° South 434 499 32,300 1,020 Climbing Jacksonville Center
09:16AM 33.7200 -80.8625 180° South 434 499 33,300 900 Climbing Jacksonville Center
09:17AM 33.6011 -80.8753 185° South 429 494 34,200 720 Climbing Jacksonville Center
09:18AM 33.4803 -80.8906 186° South 429 494 34,800 600 Climbing Jacksonville Center
09:19AM 33.3575 -80.9006 184° South 434 499 35,400 540 Climbing Jacksonville Center
09:20AM 33.2364 -80.9108 184° South 439 505 35,900 540 Climbing Jacksonville Center
09:21AM 33.1197 -80.9233 185° South 439 505 36,500 600 Climbing Jacksonville Center
09:22AM 33.0031 -80.9358 185° South 434 499 37,200 600 Climbing Jacksonville Center
09:23AM 32.8883 -80.9433 183° South 421 484 37,800 600 Climbing Jacksonville Center
09:24AM 32.7781 -80.9556 185° South 415 478 38,400 540 Climbing Jacksonville Center
09:25AM 32.6675 -80.9653 184° South 404 465 38,900 540 Climbing Jacksonville Center
09:26AM 32.5550 -80.9750 184° South 404 465 39,500 540 Climbing Jacksonville Center
09:27AM 32.4444 -80.9872 185° South 404 465 40,000 240 Climbing Jacksonville Center
09:28AM 32.3278 -80.9969 184° South 399 459 40,000  Level Jacksonville Center
09:29AM 32.2278 -81.0064 185° South 399 459 40,000  Level Jacksonville Center
09:30AM 32.1003 -81.0117 182° South 420 483 40,000  Level Jacksonville Center
09:31AM 31.9961 -81.0258 187° South 420 483 40,000  Level Jacksonville Center
09:32AM 31.8711 -81.0383 185° South 412 474 40,000  Level Jacksonville Center
09:33AM 31.7586 -81.0503 185° South 407 468 40,000  Level Jacksonville Center
09:34AM 31.6564 -81.0572 183° South 407 468 40,000  Level Jacksonville Center
09:35AM 31.5356 -81.0694 185° South 401 461 40,000  Level Jacksonville Center
09:36AM 31.4208 -81.0814 185° South 407 468 40,000  Level Jacksonville Center
09:37AM 31.3186 -81.0931 186° South 412 474 40,000  Level Jacksonville Center
09:38AM 31.2061 -81.1000 183° South 407 468 40,000  Level Jacksonville Center
09:39AM 31.0956 -81.1119 185° South 407 468 40,000  Level Jacksonville Center
09:40AM 30.9828 -81.1236 185° South 407 468 40,000  Level Jacksonville Center
09:41AM 30.8725 -81.1331 184° South 407 468 40,000  Level Jacksonville Center
09:42AM 30.7578 -81.1425 184° South 407 468 40,000  Level Jacksonville Center
09:43AM 30.6472 -81.1517 184° South 402 463 40,000  Level Jacksonville Center
09:44AM 30.5322 -81.1489 179° South 407 468 40,000  Level Jacksonville Center
09:45AM 30.4175 -81.1461 179° South 407 468 40,000  Level Jacksonville Center
09:46AM 30.3025 -81.1433 179° South 413 475 40,000  Level Jacksonville Center
09:47AM 30.1856 -81.1361 177° South 413 475 40,000  Level Jacksonville Center
09:48AM 30.0658 -81.0903 162° South 430 495 40,000  Level Jacksonville Center
09:49AM 29.9503 -81.0347 157° South 440 506 40,000  Level Jacksonville Center
09:50AM 29.8367 -80.9794 157° South 445 512 40,000  Level Jacksonville Center
09:51AM 29.7189 -80.9244 158° South 452 520 40,000  Level Jacksonville Center
09:52AM 29.6011 -80.8694 158° South 452 520 40,000  Level Jacksonville Center
09:53AM 29.4836 -80.8194 160° South 457 526 40,000  Level Jacksonville Center
09:54AM 29.3739 -80.7597 155° Southeast 451 519 40,000  Level Jacksonville Center
09:55AM 29.2731 -80.7147 159° South 447 514 40,000 -120 Level Miami Center
09:56AM 29.1600 -80.6633 158° South 463 533 39,800 -420 Descending Miami Center
09:57AM 29.0383 -80.6044 157° South 468 539 39,200 -780 Descending Miami Center
09:58AM 28.9231 -80.5508 158° South 468 539 38,300 -600 Descending Miami Center
09:59AM 28.8219 -80.4978 155° Southeast 454 522 38,000 -180 Descending Miami Center
10:00AM 28.7067 -80.4419 157° South 449 517 38,000  Level Miami Center
10:01AM 28.5789 -80.3786 156° South 449 517 38,000  Level Miami Center
10:02AM 28.4592 -80.3231 158° South 449 517 38,000  Level Miami Center
10:03AM 28.3417 -80.2650 156° South 455 524 38,000  Level Miami Center
10:04AM 28.2364 -80.2147 157° South 455 524 38,000  Level Miami Center
10:05AM 28.1189 -80.1572 157° South 450 518 38,000  Level Miami Center
10:06AM 27.9908 -80.0969 157° South 450 518 38,000 -1,140 Level Miami Center
10:07AM 27.8750 -80.0419 157° South 450 518 35,800 -2,100 Descending Miami Center
10:08AM 27.7656 -79.9919 158° South 450 518 33,800 -2,220 Descending Miami Center
10:09AM 27.6497 -79.9372 157° South 450 518 31,400 -2,580 Descending Miami Center
10:10AM 27.5339 -79.8850 158° South 450 518 28,700 -2,820 Descending Miami Center
10:11AM 27.3811 -79.8083 156° South 457 526 25,200 -2,160 Descending Miami Center
10:12AM 27.2672 -79.7611 160° South 446 513 24,000 -1,200 Descending Miami Center
10:13AM 27.1675 -79.7331 166° South 427 491 22,900 -1,680 Descending Miami Center
10:14AM 27.0575 -79.7000 165° South 420 483 20,700 -2,400 Descending Miami Center
10:15AM 26.9350 -79.6644 165° South 408 470 18,100 -2,340 Descending Miami Center
10:16AM 26.8325 -79.6619 179° South 399 459 16,100 -2,040 Descending Miami Center
10:17AM 26.7358 -79.6922 196° South 370 426 14,100 -1,920 Descending Miami Center
10:18AM 26.6517 -79.7319 203° Southwest 370 426 12,300 -2,040 Descending Miami Center
10:18AM 26.6114 -79.7519 204° Southwest 367 422 11,500 -2,340 Descending Miami Center
10:18AM 26.5842 -79.7653 204° Southwest 360 414 10,900 -1,860 Descending Miami Center
10:19AM 26.5525 -79.7783 200° South 365 420 10,200 -1,680 Descending Miami Center
10:19AM 26.5039 -79.8050 206° Southwest 285 328 9,200 -1,500 Descending Miami Center
10:20AM 26.4872 -79.8092 193° South 317 365 8,700 -1,620 Descending Miami Center
10:20AM 26.4344 -79.8333 202° Southwest 265 305 7,600 -1,740 Descending Miami Center
10:21AM 26.4153 -79.8514 220° Southwest 274 315 7,000 -1,500 Descending Miami Center
10:21AM 26.3811 -79.8878 224° Southwest 281 323 6,200 -1,440 Descending Miami Center
10:22AM 26.3661 -79.9058 227° Southwest 274 315 5,600 -1,620 Descending Miami Center
10:22AM 26.3336 -79.9561 234° Southwest 288 331 4,600 -1,500 Descending Miami Center
10:23AM 26.3144 -79.9833 232° Southwest 287 330 4,100 -1,140 Descending Miami Center
10:23AM 26.2883 -80.0314 239° Southwest 285 328 3,500 -900 Descending Miami Center
10:24AM 26.2753 -80.0494 231° Southwest 287 330 3,200 -540 Descending Miami Center
10:24AM 26.2408 -80.0994 232° Southwest 264 304 3,000 -300 Descending Miami Center
10:25AM 26.2342 -80.1156 245° Southwest 287 330 2,900 -180 Descending Miami Center
10:25AM 26.2244 -80.1733 259° West 200 230 2,800 -300 Descending Miami Center
10:26AM 26.2264 -80.1778 296° West 227 261 2,600 -780 Descending Miami Center
10:26AM 26.2233 -80.2242 266° West 175 201 2,100 -720 Descending Miami Center
10:27AM 26.2253 -80.2358 281° West 210 242 1,900 -420 Descending Miami Center
10:27AM 26.2139 -80.2725 251° West 174 200 1,700 -240 Descending Miami Center
10:28AM 26.2075 -80.2747 197° South 178 205 1,700 -240 Level Miami Center
10:28AM 26.1872 -80.2486 131° Southeast 129 148 1,500 -660 Descending Miami Center
10:29AM 26.1944 -80.2094 78° East 124 143 600 -900 Descending Miami Center
10:31AM 26.1833 -80.1667 90° East  Level FlightAware Approximate
10:38AM 26.1973 -80.1707 90° East  Level Estimated